Time;durP1;ratioP1;P1;durP2;ratioP2;P2;SDS_P1;SDS_P2;PMS_P1;PMS_P2;Temp;Humidity;BMP_temperature;BMP_pressure;BME280_temperature;BME280_humidity;BME280_pressure;Samples;Min_cycle;Max_cycle;Signal;HPM_P1;HPM_P2
2023/01/04 00:09:51;;;;;;;1335.37;511.13;;;8.00;99.90;;;;;;5053542;28;20045;-90
2023/01/04 00:17:54;;;;;;;1299.67;468.33;;;8.00;99.90;;;;;;4892329;29;20560;-90
2023/01/04 00:29:19;;;;;;;;;;;;;;;;;;;;;
2023/01/04 00:32:53;;;;;;;;;;;;;;;;;;;;;
2023/01/04 00:44:33;;;;;;;1321.73;483.50;;;8.00;99.90;;;;;;4859626;29;20052;-88
2023/01/04 00:48:15;;;;;;;1315.93;502.03;;;8.00;99.90;;;;;;4866882;29;20069;-89
2023/01/04 00:56:02;;;;;;;1312.20;479.17;;;8.10;99.90;;;;;;4936029;29;20062;-88
2023/01/04 01:06:26;;;;;;;;;;;;;;;;;;;;;
2023/01/04 01:09:59;;;;;;;1331.13;489.00;;;7.90;99.90;;;;;;4955291;28;20501;-90
2023/01/04 01:20:58;;;;;;;1337.30;494.50;;;8.00;99.90;;;;;;4954399;29;20038;-88
2023/01/04 01:24:41;;;;;;;1347.30;505.35;;;8.00;99.90;;;;;;5031552;28;20057;-91
2023/01/04 01:51:01;;;;;;;1364.47;509.27;;;7.90;99.90;;;;;;5031435;28;20099;-88
2023/01/04 01:54:40;;;;;;;1357.13;496.20;;;7.90;99.90;;;;;;5031786;28;20045;-88
2023/01/04 01:57:44;;;;;;;1335.27;484.70;;;8.00;99.90;;;;;;5038015;28;20047;-89
2023/01/04 02:08:22;;;;;;;;;;;;;;;;;;;;;
2023/01/04 02:15:46;;;;;;;;;;;;;;;;;;;;;
2023/01/04 04:14:14;;;;;;;1309.60;509.33;;;9.20;99.90;;;;;;5033356;28;20107;-90
2023/01/04 04:25:34;;;;;;;1307.70;516.87;;;9.30;99.90;;;;;;4974675;28;20061;-91
2023/01/04 04:29:20;;;;;;;;;;;;;;;;;;;;;
2023/01/04 04:33:35;;;;;;;1314.63;517.57;;;9.50;99.90;;;;;;4929422;29;20180;-91
2023/01/04 04:59:09;;;;;;;1273.67;484.80;;;10.00;99.90;;;;;;5032383;28;20571;-89
2023/01/04 05:24:03;;;;;;;1254.53;481.07;;;10.30;99.90;;;;;;4992622;28;20141;-88
2023/01/04 08:01:41;;;;;;;;;;;;;;;;;;;;;
2023/01/04 08:37:34;;;;;;;;;;;;;;;;;;;;;
2023/01/04 08:41:08;;;;;;;;;;;;;;;;;;;;;
2023/01/04 08:48:33;;;;;;;1142.33;536.07;;;10.80;99.90;;;;;;4714707;30;20059;-89
2023/01/04 08:51:56;;;;;;;1060.07;463.67;;;10.80;99.90;;;;;;4612124;31;20085;-89
2023/01/04 08:54:38;;;;;;;851.70;526.80;;;10.80;99.90;;;;;;4633389;30;20165;-90
2023/01/04 08:57:08;;;;;;;1076.60;529.07;;;10.70;99.90;;;;;;4647818;30;20121;-90
2023/01/04 08:59:40;;;;;;;855.90;432.70;;;10.30;99.90;;;;;;4634296;30;20092;-89
2023/01/04 09:02:40;;;;;;;881.38;443.77;;;10.80;99.90;;;;;;4656909;30;20062;-89
2023/01/04 09:05:46;;;;;;;1153.20;538.33;;;10.80;99.90;;;;;;4647494;30;20077;-88
2023/01/04 09:08:43;;;;;;;1009.00;535.50;;;10.80;99.90;;;;;;4647420;30;20133;-89
2023/01/04 09:11:14;;;;;;;1153.57;520.25;;;10.80;99.90;;;;;;4634841;30;20055;-89
2023/01/04 09:13:44;;;;;;;1108.47;543.80;;;10.80;99.90;;;;;;4649472;30;20537;-89
2023/01/04 09:16:24;;;;;;;1140.43;529.73;;;10.80;99.90;;;;;;4650416;30;20524;-90
2023/01/04 09:18:51;;;;;;;1052.60;537.83;;;10.80;99.90;;;;;;4634046;30;20050;-89
2023/01/04 09:21:24;;;;;;;828.58;534.90;;;10.80;99.90;;;;;;4619738;30;20059;-90
2023/01/04 09:24:20;;;;;;;;;;;;;;;;;;;;;
2023/01/04 09:26:48;;;;;;;955.03;456.87;;;10.80;99.90;;;;;;4680222;30;20423;-90
2023/01/04 09:29:18;;;;;;;850.17;427.13;;;10.80;99.90;;;;;;4700320;30;20045;-88
2023/01/04 09:31:56;;;;;;;843.53;429.67;;;10.70;99.90;;;;;;4684943;30;20053;-90
2023/01/04 09:34:34;;;;;;;1015.73;543.73;;;10.80;99.90;;;;;;4685032;30;20491;-88
2023/01/04 09:37:11;;;;;;;952.53;546.47;;;10.80;99.90;;;;;;4707623;30;20060;-89
2023/01/04 09:39:59;;;;;;;883.83;436.38;;;10.80;99.90;;;;;;4716678;30;20049;-89
2023/01/04 09:43:01;;;;;;;921.07;447.00;;;10.80;99.90;;;;;;4716804;30;20435;-89
2023/01/04 09:53:45;;;;;;;959.77;454.53;;;11.00;99.90;;;;;;4629984;31;20197;-91
2023/01/04 09:56:53;;;;;;;1023.87;549.33;;;11.10;99.90;;;;;;4703485;30;20084;-88
2023/01/04 09:59:57;;;;;;;;;;;;;;;;;;;;;
2023/01/04 10:03:58;;;;;;;;;;;;;;;;;;;;;
2023/01/04 10:19:24;;;;;;;;;;;;;;;;;;;;;
2023/01/04 10:27:15;;;;;;;1224.65;529.88;;;11.20;99.90;;;;;;4645305;30;20102;-88
2023/01/04 10:34:07;;;;;;;;;;;;;;;;;;;;;
2023/01/04 10:37:48;;;;;;;;;;;;;;;;;;;;;
2023/01/04 10:48:39;;;;;;;;;;;;;;;;;;;;;
2023/01/04 10:52:14;;;;;;;1009.07;560.47;;;11.40;99.90;;;;;;4553415;31;20072;-92
2023/01/04 10:55:23;;;;;;;921.23;446.33;;;11.50;99.90;;;;;;4579774;31;20145;-88
2023/01/04 10:58:49;;;;;;;1002.73;559.67;;;11.60;99.90;;;;;;4579096;31;20122;-89
2023/01/04 11:02:22;;;;;;;872.85;438.55;;;11.60;99.90;;;;;;4532044;31;20079;-90
2023/01/04 11:05:19;;;;;;;979.60;563.03;;;11.60;99.90;;;;;;4565439;31;20057;-88
2023/01/04 11:08:39;;;;;;;891.28;440.20;;;11.60;99.90;;;;;;4580999;31;20090;-88
2023/01/04 11:12:07;;;;;;;1027.63;560.70;;;11.70;99.90;;;;;;4566936;31;20048;-91
2023/01/04 11:15:35;;;;;;;991.97;462.07;;;11.70;99.90;;;;;;4566259;31;20104;-88
2023/01/04 11:19:05;;;;;;;1121.87;550.40;;;11.80;99.90;;;;;;4579270;31;20147;-89
2023/01/04 11:22:56;;;;;;;1052.50;466.53;;;11.80;99.90;;;;;;4596083;31;20075;-88
2023/01/04 11:26:23;;;;;;;998.27;464.00;;;11.90;99.90;;;;;;4595899;31;20063;-89
2023/01/04 11:29:39;;;;;;;917.90;455.83;;;12.40;99.90;;;;;;4595949;31;20515;-88
2023/01/04 11:33:29;;;;;;;946.13;460.23;;;11.90;99.90;;;;;;4598224;31;20055;-89
2023/01/04 11:37:09;;;;;;;1029.40;567.70;;;11.90;99.90;;;;;;4518693;31;20137;-88
2023/01/04 11:40:58;;;;;;;943.17;453.98;;;11.90;99.90;;;;;;4566463;31;20513;-87
2023/01/04 11:48:36;;;;;;;1034.13;560.53;;;12.00;99.90;;;;;;4561050;31;20093;-88
2023/01/04 11:51:53;;;;;;;1008.77;467.43;;;12.70;99.90;;;;;;4565936;31;20061;-90
2023/01/04 11:55:43;;;;;;;;;;;;;;;;;;;;;
2023/01/04 11:59:20;;;;;;;1180.07;492.60;;;12.00;99.90;;;;;;4515830;31;20123;-90
2023/01/04 12:02:49;;;;;;;1302.87;567.17;;;11.90;99.90;;;;;;4508856;31;20066;-89
2023/01/04 12:06:56;;;;;;;1281.77;521.23;;;11.90;99.90;;;;;;4516591;31;20466;-92
2023/01/04 12:10:21;;;;;;;;;;;;;;;;;;;;;
2023/01/04 12:13:57;;;;;;;1303.60;527.00;;;12.00;99.90;;;;;;4477881;31;20693;-88
2023/01/04 12:17:25;;;;;;;1341.13;559.60;;;11.90;99.90;;;;;;4501193;31;20058;-89
2023/01/04 12:24:54;;;;;;;;;;;;;;;;;;;;;
2023/01/04 12:28:42;;;;;;;;;;;;;;;;;;;;;
2023/01/04 12:32:16;;;;;;;1310.03;572.67;;;12.00;99.90;;;;;;4392368;27;22186658;-89
2023/01/04 12:36:00;;;;;;;;;;;;;;;;;;;;;
2023/01/04 12:40:11;;;;;;;1223.50;506.17;;;12.10;99.90;;;;;;5152960;27;20042;-89
2023/01/04 12:43:49;;;;;;;1293.07;562.27;;;12.00;99.90;;;;;;5172949;27;20091;-88
2023/01/04 12:50:35;;;;;;;1259.93;557.15;;;12.00;99.90;;;;;;5171878;27;20126;-88
2023/01/04 12:54:15;;;;;;;1231.40;554.87;;;12.00;99.90;;;;;;5172903;27;20457;-89
2023/01/04 12:57:47;;;;;;;1245.60;568.50;;;12.00;99.90;;;;;;5149516;27;20123;-88
2023/01/04 13:01:26;;;;;;;;;;;;;;;;;;;;;
2023/01/04 13:04:55;;;;;;;;;;;;;;;;;;;;;
2023/01/04 13:08:28;;;;;;;985.10;465.95;;;12.00;99.90;;;;;;5116048;27;20578;-89
2023/01/04 13:11:53;;;;;;;;;;;;;;;;;;;;;
2023/01/04 13:15:09;;;;;;;957.47;464.27;;;12.00;99.90;;;;;;5030308;28;20119;-88
2023/01/04 13:19:14;;;;;;;1041.67;575.33;;;12.00;99.90;;;;;;5047568;28;20049;-88
2023/01/04 13:23:05;;;;;;;938.17;462.67;;;12.00;99.90;;;;;;4988350;28;20506;-89
2023/01/04 13:26:36;;;;;;;1023.40;576.57;;;12.00;99.90;;;;;;4950140;28;20062;-88
2023/01/04 13:29:47;;;;;;;985.87;470.43;;;11.80;99.90;;;;;;4968501;28;20525;-89
2023/01/04 13:33:23;;;;;;;925.88;455.88;;;11.90;99.90;;;;;;4892713;29;20534;-89
2023/01/04 13:40:36;;;;;;;871.17;449.70;;;11.90;99.90;;;;;;4892562;29;20053;-90
2023/01/04 13:43:50;;;;;;;808.78;433.58;;;11.80;99.90;;;;;;4843147;29;20129;-88
2023/01/04 13:50:42;;;;;;;1015.57;572.67;;;11.90;99.90;;;;;;4864316;29;20061;-88
2023/01/04 13:54:21;;;;;;;965.50;458.98;;;11.80;99.90;;;;;;4895957;29;20112;-88
2023/01/04 13:57:56;;;;;;;;;;;;;;;;;;;;;
2023/01/04 14:01:06;;;;;;;981.27;466.20;;;11.90;99.90;;;;;;4915223;29;20520;-88
2023/01/04 14:04:46;;;;;;;1062.13;561.60;;;11.90;99.90;;;;;;4914717;29;20091;-89
2023/01/04 14:07:53;;;;;;;960.23;461.07;;;11.90;99.90;;;;;;4930705;29;20160;-89
2023/01/04 14:18:43;;;;;;;979.95;459.77;;;11.80;99.90;;;;;;4901342;29;20131;-88
2023/01/04 14:22:15;;;;;;;1101.80;544.27;;;11.80;99.90;;;;;;4965719;28;20454;-88
2023/01/04 14:29:33;;;;;;;1036.23;473.47;;;11.70;99.90;;;;;;4954967;29;20587;-89
2023/01/04 14:33:38;;;;;;;1143.60;546.43;;;11.80;99.90;;;;;;4955790;28;20066;-88
2023/01/04 14:37:03;;;;;;;1166.87;537.70;;;11.70;99.90;;;;;;4865021;29;20064;-87
2023/01/04 14:40:50;;;;;;;1060.87;465.37;;;10.80;99.90;;;;;;4877348;29;20072;-88
2023/01/04 14:44:22;;;;;;;1153.97;533.28;;;11.70;99.90;;;;;;4832973;29;20049;-89
2023/01/04 14:47:49;;;;;;;1152.10;528.70;;;11.70;99.90;;;;;;4823709;29;20062;-88
2023/01/04 14:51:32;;;;;;;1138.50;534.80;;;11.60;99.90;;;;;;4836231;29;20058;-89
2023/01/04 14:55:16;;;;;;;;;;;;;;;;;;;;;
2023/01/04 14:58:55;;;;;;;;;;;;;;;;;;;;;
2023/01/04 15:02:28;;;;;;;1183.17;535.83;;;11.50;99.90;;;;;;4823441;29;20610;-89
2023/01/04 15:09:43;;;;;;;1214.00;545.47;;;11.40;99.90;;;;;;4898437;29;20054;-89
2023/01/04 15:13:13;;;;;;;;;;;;;;;;;;;;;
2023/01/04 15:16:47;;;;;;;1123.83;474.27;;;11.40;99.90;;;;;;4953915;28;20173;-89
2023/01/04 15:20:24;;;;;;;1244.25;542.05;;;11.40;99.90;;;;;;4953943;29;20094;-90
2023/01/04 15:24:02;;;;;;;;;;;;;;;;;;;;;
2023/01/04 15:27:22;;;;;;;1162.13;479.03;;;11.20;99.90;;;;;;4860023;29;20054;-90
2023/01/04 15:38:19;;;;;;;;;;;;;;;;;;;;;
2023/01/04 15:49:13;;;;;;;1303.23;536.30;;;11.10;99.90;;;;;;4992001;28;20181;-91
2023/01/04 15:52:59;;;;;;;;;;;;;;;;;;;;;
2023/01/04 16:12:40;;;;;;;1336.43;531.10;;;11.10;99.90;;;;;;4896298;29;20499;-90
2023/01/04 16:23:21;;;;;;;1353.67;541.73;;;11.50;99.90;;;;;;4822185;29;20424;-89
2023/01/04 16:26:37;;;;;;;1360.33;547.93;;;11.00;99.90;;;;;;4819465;29;20540;-89
2023/01/04 16:29:49;;;;;;;1362.70;541.97;;;11.00;99.90;;;;;;4858667;29;20102;-88
2023/01/04 16:33:45;;;;;;;1359.40;543.40;;;10.90;99.90;;;;;;4786228;29;20402;-87
2023/01/04 16:44:41;;;;;;;1299.37;518.60;;;10.80;99.90;;;;;;4793665;29;20524;-89
2023/01/04 16:51:27;;;;;;;1305.27;518.40;;;11.10;99.90;;;;;;4877425;29;20109;-88
2023/01/04 17:16:14;;;;;;;1374.87;539.20;;;10.50;99.90;;;;;;5001185;28;20484;-88
2023/01/04 18:31:39;;;;;;;1371.47;569.47;;;10.40;99.90;;;;;;5859753;23;20236;-88
2023/01/04 18:39:00;;;;;;;1275.37;500.43;;;10.40;99.90;;;;;;4881190;29;20100;-89
2023/01/04 18:42:34;;;;;;;1320.77;532.13;;;10.30;99.90;;;;;;4880214;29;20128;-88
2023/01/04 18:49:27;;;;;;;1313.80;526.17;;;10.30;99.90;;;;;;4881682;29;20553;-87
2023/01/04 19:13:42;;;;;;;1331.47;526.83;;;10.20;99.90;;;;;;4769282;30;20067;-89
2023/01/04 19:16:32;;;;;;;1289.53;511.60;;;10.80;99.90;;;;;;4772174;30;20060;-89
2023/01/04 19:33:23;;;;;;;1307.93;519.63;;;9.70;99.90;;;;;;4832622;29;20130;-87
2023/01/04 19:37:10;;;;;;;1276.63;514.83;;;10.10;99.90;;;;;;4841242;29;20401;-88
2023/01/04 19:40:22;;;;;;;1295.10;521.40;;;10.20;99.90;;;;;;4725739;30;20107;-88
2023/01/04 19:43:42;;;;;;;1282.93;523.83;;;10.20;99.90;;;;;;4718321;30;20047;-91
2023/01/04 19:46:26;;;;;;;1260.90;517.43;;;10.10;99.90;;;;;;4734346;30;20057;-87
2023/01/04 19:53:23;;;;;;;1141.90;468.23;;;10.10;99.90;;;;;;4720443;30;20427;-91
2023/01/04 20:00:17;;;;;;;1188.37;512.67;;;10.10;99.90;;;;;;4714583;30;20128;-90
2023/01/04 20:03:25;;;;;;;1123.67;466.00;;;10.10;99.90;;;;;;4707996;30;20047;-90
2023/01/04 20:06:19;;;;;;;1113.77;467.23;;;10.10;99.90;;;;;;4705703;30;20044;-89
2023/01/04 20:09:07;;;;;;;1161.20;509.48;;;10.10;99.90;;;;;;4728157;30;20048;-92
2023/01/04 20:12:45;;;;;;;;;;;;;;;;;;;;;
2023/01/04 20:15:23;;;;;;;1178.20;507.23;;;10.10;99.90;;;;;;4776299;29;20054;-88
2023/01/04 20:30:03;;;;;;;;;;;;;;;;;;;;;
2023/01/04 20:38:12;;;;;;;;;;;;;;;;;;;;;
2023/01/04 20:47:39;;;;;;;1079.97;462.47;;;10.00;99.90;;;;;;4884922;24;20049;-90
2023/01/04 20:50:40;;;;;;;1147.37;500.87;;;10.10;99.90;;;;;;4877539;29;20134;-92
2023/01/04 20:54:17;;;;;;;;;;;;;;;;;;;;;
2023/01/04 23:09:00;;;;;;;;;;;;;;;;;;;;;
2023/01/04 23:32:40;;;;;;;1251.97;494.73;;;9.60;99.90;;;;;;4511910;31;20591;-91
2023/01/04 23:36:14;;;;;;;1273.80;512.43;;;9.00;99.90;;;;;;4534545;31;20072;-91
